Time;durP1;ratioP1;P1;durP2;ratioP2;P2;SDS_P1;SDS_P2;PMS_P1;PMS_P2;Temp;Humidity;BMP_temperature;BMP_pressure;BME280_temperature;BME280_humidity;BME280_pressure;Samples;Min_cycle;Max_cycle;Signal;HPM_P1;HPM_P2
2023/03/04 00:02:07;;;;;;;;;;;9.60;99.90;;;;;;5072868;28;20032;-68
2023/03/04 00:04:35;;;;;;;3.30;1.65;;;9.50;99.90;;;;;;5072856;28;20439;-68
2023/03/04 00:07:01;;;;;;;5.55;1.55;;;9.50;99.90;;;;;;5072531;28;20012;-67
2023/03/04 00:09:27;;;;;;;2.83;1.70;;;9.50;99.90;;;;;;5072296;28;20021;-67
2023/03/04 00:11:54;;;;;;;2.70;1.55;;;9.50;99.90;;;;;;5072259;28;20267;-62
2023/03/04 00:14:20;;;;;;;2.47;1.30;;;9.50;99.90;;;;;;5068678;28;20473;-67
2023/03/04 00:16:47;;;;;;;4.22;1.30;;;9.40;99.90;;;;;;5062485;28;20029;-65
2023/03/04 00:19:14;;;;;;;4.75;1.30;;;9.30;99.90;;;;;;5059195;28;20061;-62
2023/03/04 00:21:40;;;;;;;3.35;1.17;;;9.30;99.90;;;;;;5072589;28;20376;-67
2023/03/04 00:24:08;;;;;;;3.88;1.10;;;9.30;99.90;;;;;;5071206;28;20032;-67
2023/03/04 00:26:36;;;;;;;3.78;1.08;;;9.20;99.90;;;;;;5072028;28;20051;-64
2023/03/04 00:29:02;;;;;;;2.38;0.93;;;9.20;99.90;;;;;;5061487;28;20471;-66
2023/03/04 00:31:28;;;;;;;3.90;0.93;;;9.10;99.90;;;;;;5069357;28;20484;-67
2023/03/04 00:33:54;;;;;;;6.87;1.40;;;9.00;99.90;;;;;;5070631;28;20032;-67
2023/03/04 00:36:20;;;;;;;2.83;1.00;;;9.00;99.90;;;;;;5071977;28;20145;-68
2023/03/04 00:38:46;;;;;;;2.80;1.00;;;9.00;99.90;;;;;;5071941;28;20047;-67
2023/03/04 00:41:12;;;;;;;5.07;1.17;;;8.90;99.90;;;;;;5071840;28;20131;-68
2023/03/04 00:43:38;;;;;;;2.13;1.10;;;8.90;99.90;;;;;;5072132;28;20025;-67
2023/03/04 00:46:04;;;;;;;3.63;0.73;;;8.80;99.90;;;;;;5071828;28;20492;-65
2023/03/04 00:48:30;;;;;;;3.47;1.05;;;8.80;99.90;;;;;;5070612;28;20032;-69
2023/03/04 00:50:56;;;;;;;1.48;0.82;;;8.80;99.90;;;;;;5072078;28;20024;-66
2023/03/04 00:53:22;;;;;;;2.90;1.07;;;8.70;99.90;;;;;;5071634;28;20029;-68
2023/03/04 00:55:49;;;;;;;3.28;0.93;;;8.70;99.90;;;;;;5070349;28;20048;-68
2023/03/04 00:58:15;;;;;;;2.25;0.82;;;8.70;99.90;;;;;;5071834;28;20021;-65
2023/03/04 01:00:41;;;;;;;1.33;0.73;;;8.70;99.90;;;;;;5071714;28;20138;-68
2023/03/04 01:03:07;;;;;;;5.20;1.10;;;8.70;99.90;;;;;;5071943;28;20021;-68
2023/03/04 01:05:34;;;;;;;4.13;1.20;;;8.70;99.90;;;;;;5070221;28;20094;-68
2023/03/04 01:08:03;;;;;;;3.25;1.10;;;8.70;99.90;;;;;;5071479;28;20266;-68
2023/03/04 01:10:29;;;;;;;2.95;1.30;;;8.70;99.90;;;;;;5070988;28;20474;-68
2023/03/04 01:12:55;;;;;;;3.10;1.17;;;8.70;99.90;;;;;;5071552;28;20166;-67
2023/03/04 01:15:21;;;;;;;6.63;1.10;;;8.60;99.90;;;;;;5071677;28;20148;-68
2023/03/04 01:17:47;;;;;;;1.85;0.85;;;8.60;99.90;;;;;;5071147;28;20043;-67
2023/03/04 01:20:15;;;;;;;3.77;1.40;;;8.60;99.90;;;;;;5071166;28;20382;-63
2023/03/04 01:22:43;;;;;;;4.75;1.00;;;8.60;99.90;;;;;;5070844;28;20066;-68
2023/03/04 01:25:12;;;;;;;1.67;0.70;;;8.60;99.90;;;;;;5071263;28;20120;-68
2023/03/04 01:27:38;;;;;;;2.03;0.80;;;8.60;99.90;;;;;;5103127;28;20369;-68
2023/03/04 01:30:06;;;;;;;2.23;0.90;;;8.70;99.90;;;;;;5071637;28;20040;-67
2023/03/04 01:32:32;;;;;;;3.15;0.80;;;8.70;99.90;;;;;;5071094;28;20183;-67
2023/03/04 01:34:59;;;;;;;2.87;0.90;;;8.70;99.90;;;;;;5069367;28;20028;-68
2023/03/04 01:37:25;;;;;;;2.10;0.95;;;8.70;99.90;;;;;;5071221;28;20484;-67
2023/03/04 01:39:51;;;;;;;3.03;0.98;;;8.70;99.90;;;;;;5070754;28;20131;-68
2023/03/04 01:42:20;;;;;;;3.50;1.20;;;8.70;99.90;;;;;;5070853;28;20202;-67
2023/03/04 01:44:48;;;;;;;3.17;1.20;;;8.70;99.90;;;;;;5070649;28;20029;-66
2023/03/04 01:47:16;;;;;;;2.50;0.90;;;8.60;99.90;;;;;;5070617;28;20025;-67
2023/03/04 01:49:42;;;;;;;1.88;1.10;;;8.60;99.90;;;;;;5069201;28;20025;-67
2023/03/04 01:52:12;;;;;;;1.70;0.90;;;8.50;99.90;;;;;;5070564;28;20020;-67
2023/03/04 01:54:41;;;;;;;2.08;1.02;;;8.50;99.90;;;;;;5071049;28;20028;-67
2023/03/04 01:57:19;;;;;;;2.85;1.00;;;8.40;99.90;;;;;;5070598;28;20073;-68
2023/03/04 01:59:48;;;;;;;3.90;0.98;;;8.40;99.90;;;;;;5070733;28;20043;-68
2023/03/04 02:02:14;;;;;;;1.95;1.00;;;8.40;99.90;;;;;;5070529;28;20029;-66
2023/03/04 02:04:42;;;;;;;1.63;0.80;;;8.40;99.90;;;;;;5070207;28;20029;-67
2023/03/04 02:07:09;;;;;;;2.92;0.80;;;8.40;99.90;;;;;;5070849;28;20020;-66
2023/03/04 02:09:36;;;;;;;4.90;1.53;;;8.50;99.90;;;;;;5070401;28;20133;-66
2023/03/04 02:12:03;;;;;;;2.00;0.80;;;8.50;99.90;;;;;;5070263;28;20355;-66
2023/03/04 02:14:30;;;;;;;6.78;1.25;;;8.50;99.90;;;;;;5070224;28;20021;-67
2023/03/04 02:16:57;;;;;;;3.88;1.20;;;8.50;99.90;;;;;;5070300;28;20032;-66
2023/03/04 02:20:15;;;;;;;1.95;0.82;;;8.50;99.90;;;;;;5068995;28;20032;-66
2023/03/04 02:23:05;;;;;;;4.13;0.90;;;8.50;99.90;;;;;;5070458;28;20039;-66
2023/03/04 02:25:57;;;;;;;3.25;0.93;;;8.50;99.90;;;;;;5070521;28;20029;-67
2023/03/04 02:28:24;;;;;;;2.50;0.95;;;8.50;99.90;;;;;;5038856;28;20037;-67
2023/03/04 02:30:51;;;;;;;2.90;1.00;;;8.50;99.90;;;;;;5070274;28;20017;-66
2023/03/04 02:33:17;;;;;;;;;;;8.40;99.90;;;;;;5071035;28;20047;-67
2023/03/04 02:35:44;;;;;;;2.65;1.05;;;8.50;99.90;;;;;;5070346;28;19912;-67
2023/03/04 02:38:11;;;;;;;2.88;0.88;;;8.40;99.90;;;;;;5070257;28;20379;-68
2023/03/04 02:40:40;;;;;;;4.03;0.90;;;8.50;99.90;;;;;;5069696;28;20122;-67
2023/03/04 02:43:08;;;;;;;2.80;0.85;;;8.50;99.90;;;;;;5070397;28;20078;-67
2023/03/04 02:45:39;;;;;;;3.00;0.98;;;8.50;99.90;;;;;;5068812;28;20059;-66
2023/03/04 02:48:05;;;;;;;4.20;0.93;;;8.50;99.90;;;;;;5073306;28;20021;-67
2023/03/04 02:50:37;;;;;;;1.63;0.80;;;8.50;99.90;;;;;;5106265;28;20029;-68
2023/03/04 02:53:05;;;;;;;1.77;0.88;;;8.50;99.90;;;;;;5073877;28;20420;-66
2023/03/04 02:55:32;;;;;;;2.17;0.98;;;8.50;99.90;;;;;;5073540;28;20017;-67
2023/03/04 02:57:59;;;;;;;2.08;1.02;;;8.40;99.90;;;;;;5073218;28;20472;-67
2023/03/04 03:00:26;;;;;;;3.83;1.30;;;8.40;99.90;;;;;;5073265;28;20044;-65
2023/03/04 03:02:52;;;;;;;3.05;1.52;;;8.20;99.90;;;;;;5073360;28;20029;-67
2023/03/04 03:05:18;;;;;;;2.83;1.42;;;8.10;99.90;;;;;;5073423;28;20041;-66
2023/03/04 03:07:44;;;;;;;2.88;1.30;;;8.00;99.90;;;;;;5073298;28;20036;-63
2023/03/04 03:10:11;;;;;;;2.90;1.40;;;7.90;99.90;;;;;;5071904;28;20032;-68
2023/03/04 03:12:37;;;;;;;5.20;1.27;;;7.90;99.90;;;;;;5073200;28;20145;-66
2023/03/04 03:15:03;;;;;;;3.33;1.23;;;7.90;99.90;;;;;;5073423;28;20040;-66
2023/03/04 03:17:29;;;;;;;1.92;1.00;;;7.90;99.90;;;;;;5073182;28;20059;-66
2023/03/04 03:19:55;;;;;;;5.22;1.73;;;7.90;99.90;;;;;;5073487;28;20037;-66
2023/03/04 03:22:21;;;;;;;2.35;1.20;;;8.10;99.90;;;;;;5073210;28;20380;-67
2023/03/04 03:24:47;;;;;;;4.85;0.93;;;8.10;99.90;;;;;;5073216;28;20029;-66
2023/03/04 03:27:14;;;;;;;2.10;0.80;;;8.10;99.90;;;;;;5073010;28;20031;-67
2023/03/04 03:29:40;;;;;;;1.60;0.88;;;8.20;99.90;;;;;;5072922;28;20175;-66
2023/03/04 03:32:07;;;;;;;2.42;1.05;;;8.20;99.90;;;;;;5073118;28;20048;-67
2023/03/04 03:34:33;;;;;;;4.68;1.02;;;8.20;99.90;;;;;;5073117;28;20074;-67
2023/03/04 03:36:59;;;;;;;2.57;1.10;;;8.20;99.90;;;;;;5072914;28;20343;-67
2023/03/04 03:39:25;;;;;;;2.33;0.98;;;8.20;99.90;;;;;;5072423;28;20091;-67
2023/03/04 03:41:51;;;;;;;1.37;0.83;;;8.20;99.90;;;;;;5072729;28;20076;-66
2023/03/04 03:44:19;;;;;;;3.42;0.90;;;8.20;99.90;;;;;;5073430;28;20063;-67
2023/03/04 03:46:46;;;;;;;1.83;0.95;;;8.20;99.90;;;;;;5073153;28;20041;-67
2023/03/04 03:49:12;;;;;;;4.07;1.20;;;8.10;99.90;;;;;;5072641;28;20086;-67
2023/03/04 03:51:38;;;;;;;2.97;1.10;;;8.00;99.90;;;;;;5073024;28;20070;-67
2023/03/04 03:54:04;;;;;;;2.55;1.00;;;8.00;99.90;;;;;;5072651;28;20052;-67
2023/03/04 03:56:30;;;;;;;2.80;0.90;;;8.00;99.90;;;;;;5071150;28;20032;-67
2023/03/04 03:58:56;;;;;;;1.95;1.00;;;8.00;99.90;;;;;;5072511;28;20040;-67
2023/03/04 04:01:22;;;;;;;3.08;1.00;;;7.90;99.90;;;;;;5072569;28;20118;-65
2023/03/04 04:03:49;;;;;;;2.33;1.00;;;7.90;99.90;;;;;;5072430;28;20025;-67
2023/03/04 04:06:16;;;;;;;2.60;0.90;;;7.90;99.90;;;;;;5072320;28;20024;-67
2023/03/04 04:08:42;;;;;;;8.00;1.20;;;7.90;99.90;;;;;;5073074;28;20085;-67
2023/03/04 04:11:12;;;;;;;4.10;1.27;;;8.00;99.90;;;;;;5072868;28;20033;-67
2023/03/04 04:13:39;;;;;;;2.03;0.90;;;8.00;99.90;;;;;;5073014;28;20021;-67
2023/03/04 04:16:05;;;;;;;1.92;0.88;;;8.00;99.90;;;;;;5071582;28;20113;-66
2023/03/04 04:18:32;;;;;;;1.38;0.75;;;7.90;99.90;;;;;;5072877;28;20473;-69
2023/03/04 04:20:59;;;;;;;3.58;1.05;;;8.00;99.90;;;;;;5072785;28;20035;-67
2023/03/04 04:23:27;;;;;;;2.23;0.97;;;8.00;99.90;;;;;;5073784;28;20121;-66
2023/03/04 04:25:57;;;;;;;2.28;0.80;;;8.00;99.90;;;;;;5073224;28;20029;-67
2023/03/04 04:28:23;;;;;;;3.53;0.90;;;8.10;99.90;;;;;;5073374;28;20024;-68
2023/03/04 04:30:50;;;;;;;1.63;0.90;;;8.10;99.90;;;;;;5073150;28;20029;-67
2023/03/04 04:33:17;;;;;;;1.60;0.93;;;8.10;99.90;;;;;;5073125;28;20024;-67
2023/03/04 04:35:43;;;;;;;0.95;0.73;;;8.10;99.90;;;;;;5073187;28;20028;-66
2023/03/04 04:38:09;;;;;;;2.35;1.08;;;8.10;99.90;;;;;;5073487;28;20368;-67
2023/03/04 04:40:37;;;;;;;2.10;1.00;;;8.00;99.90;;;;;;5072645;28;20136;-66
2023/03/04 04:43:03;;;;;;;2.05;1.17;;;7.90;99.90;;;;;;5073079;28;20415;-67
2023/03/04 04:45:29;;;;;;;2.85;0.80;;;7.90;99.90;;;;;;5073490;28;20033;-67
2023/03/04 04:47:56;;;;;;;2.10;0.80;;;7.90;99.90;;;;;;5073417;28;20028;-66
2023/03/04 04:50:25;;;;;;;1.48;0.80;;;7.90;99.90;;;;;;5073342;28;20024;-67
2023/03/04 04:52:52;;;;;;;2.47;0.90;;;7.90;99.90;;;;;;5072916;28;20036;-67
2023/03/04 04:55:19;;;;;;;2.53;0.93;;;7.90;99.90;;;;;;5071482;28;20449;-67
2023/03/04 04:57:47;;;;;;;1.40;0.80;;;8.00;99.90;;;;;;5071120;28;20028;-66
2023/03/04 05:00:13;;;;;;;5.53;1.00;;;8.10;99.90;;;;;;5069726;28;20465;-63
2023/03/04 05:02:40;;;;;;;2.75;0.80;;;8.20;99.90;;;;;;5068673;28;20047;-65
2023/03/04 05:05:10;;;;;;;2.47;0.95;;;8.30;99.90;;;;;;5053813;28;20028;-64
2023/03/04 05:07:37;;;;;;;4.07;1.15;;;8.30;99.90;;;;;;5066104;28;20033;-67
2023/03/04 05:10:04;;;;;;;3.50;1.00;;;8.30;99.90;;;;;;5072573;28;20097;-67
2023/03/04 05:12:30;;;;;;;4.40;1.05;;;8.30;99.90;;;;;;5072414;28;20139;-67
2023/03/04 05:14:56;;;;;;;4.68;1.40;;;8.40;99.90;;;;;;5072968;28;20483;-67
2023/03/04 05:17:22;;;;;;;3.85;1.02;;;8.40;99.90;;;;;;5073060;28;20153;-64
2023/03/04 05:19:49;;;;;;;3.33;0.90;;;8.40;99.90;;;;;;5061362;28;20040;-63
2023/03/04 05:22:17;;;;;;;3.35;1.00;;;8.40;99.90;;;;;;5061423;28;20157;-67
2023/03/04 05:24:45;;;;;;;6.28;1.65;;;8.40;99.90;;;;;;5062625;28;20020;-67
2023/03/04 05:27:12;;;;;;;3.13;0.90;;;8.40;99.90;;;;;;5061417;28;20028;-63
2023/03/04 05:29:39;;;;;;;;;;;8.40;99.90;;;;;;5061326;28;20024;-65
2023/03/04 05:32:05;;;;;;;3.10;0.90;;;8.40;99.90;;;;;;5062738;28;19916;-67
2023/03/04 05:34:32;;;;;;;3.08;1.00;;;8.40;99.90;;;;;;5052815;28;20036;-64
2023/03/04 05:36:58;;;;;;;3.85;1.13;;;8.40;99.90;;;;;;5064094;28;20067;-68
2023/03/04 05:39:26;;;;;;;1.60;0.90;;;8.40;99.90;;;;;;5072445;28;20494;-63
2023/03/04 05:41:53;;;;;;;7.25;1.30;;;8.50;99.90;;;;;;5072776;28;20025;-67
2023/03/04 05:44:19;;;;;;;2.83;0.90;;;8.50;99.90;;;;;;5072783;28;20033;-66
2023/03/04 05:46:45;;;;;;;3.33;1.00;;;8.50;99.90;;;;;;5073263;28;20129;-66
2023/03/04 05:49:11;;;;;;;4.45;1.00;;;8.50;99.90;;;;;;5073353;28;20134;-67
2023/03/04 05:51:37;;;;;;;2.72;1.05;;;8.60;99.90;;;;;;5105267;28;20107;-67
2023/03/04 05:54:03;;;;;;;5.13;1.40;;;8.60;99.90;;;;;;5071414;28;20539;-66
2023/03/04 05:56:30;;;;;;;6.80;1.85;;;8.60;99.90;;;;;;5072983;28;20215;-66
2023/03/04 05:59:19;;;;;;;3.65;1.70;;;8.60;99.90;;;;;;5073103;28;20396;-62
2023/03/04 06:01:46;;;;;;;3.35;1.60;;;8.70;99.90;;;;;;5072751;28;20082;-67
2023/03/04 06:04:12;;;;;;;2.72;1.67;;;9.10;99.90;;;;;;5072496;28;20040;-67
2023/03/04 06:06:38;;;;;;;3.97;1.50;;;10.10;99.90;;;;;;5072662;28;20025;-63
2023/03/04 06:09:04;;;;;;;4.27;1.53;;;11.50;99.90;;;;;;5072603;28;20021;-67
2023/03/04 06:11:30;;;;;;;2.70;1.00;;;12.90;99.90;;;;;;5072106;28;20032;-67
2023/03/04 06:13:56;;;;;;;3.60;1.10;;;14.30;99.90;;;;;;5072279;28;20103;-64
2023/03/04 06:16:22;;;;;;;2.90;1.20;;;15.60;99.90;;;;;;5072364;28;20032;-65
2023/03/04 06:18:48;;;;;;;1.77;0.87;;;16.60;99.90;;;;;;5072962;28;20025;-67
2023/03/04 06:21:16;;;;;;;2.30;0.70;;;17.90;99.90;;;;;;5073234;28;20029;-68
2023/03/04 06:23:43;;;;;;;2.38;0.70;;;18.60;99.90;;;;;;5076583;28;20275;-69
2023/03/04 06:26:14;;;;;;;2.90;1.02;;;19.20;99.90;;;;;;5075730;28;20040;-66
2023/03/04 06:28:43;;;;;;;2.95;0.70;;;20.40;99.90;;;;;;5075965;28;20028;-66
2023/03/04 06:31:11;;;;;;;5.55;1.00;;;21.70;99.90;;;;;;5075822;28;20025;-67
2023/03/04 06:33:37;;;;;;;3.75;1.40;;;22.40;99.90;;;;;;5075942;28;20468;-66
2023/03/04 06:36:04;;;;;;;3.95;1.00;;;23.00;99.90;;;;;;5076413;28;20047;-65
2023/03/04 06:38:31;;;;;;;2.78;1.17;;;23.10;99.90;;;;;;5075705;28;20059;-65
2023/03/04 06:41:06;;;;;;;4.22;1.20;;;22.50;99.90;;;;;;5075445;28;20036;-66
2023/03/04 06:43:34;;;;;;;3.08;1.20;;;21.40;99.90;;;;;;5075249;28;20033;-66
2023/03/04 06:46:01;;;;;;;4.68;2.10;;;21.10;99.90;;;;;;5075474;28;20024;-66
2023/03/04 06:48:28;;;;;;;5.32;2.00;;;21.70;99.90;;;;;;5075029;28;20138;-65
2023/03/04 06:50:54;;;;;;;7.03;1.60;;;22.30;99.90;;;;;;5074868;28;20411;-66
2023/03/04 06:53:20;;;;;;;4.38;1.15;;;21.40;99.90;;;;;;5074853;28;20051;-68
2023/03/04 06:55:48;;;;;;;4.00;1.15;;;19.90;99.90;;;;;;5074057;28;20099;-67
2023/03/04 06:58:16;;;;;;;3.45;0.82;;;19.30;99.90;;;;;;5073946;28;20048;-65
2023/03/04 07:00:44;;;;;;;6.05;1.60;;;19.80;99.90;;;;;;5074004;28;20495;-66
2023/03/04 07:03:12;;;;;;;3.10;0.90;;;20.60;99.90;;;;;;5073384;28;20353;-65
2023/03/04 07:05:38;;;;;;;5.03;1.40;;;21.80;99.90;;;;;;5073954;28;20116;-67
2023/03/04 07:08:05;;;;;;;3.47;1.05;;;22.90;99.90;;;;;;5073922;28;20032;-65
2023/03/04 07:10:32;;;;;;;3.17;0.70;;;23.70;99.90;;;;;;5072621;28;20476;-69
2023/03/04 07:12:58;;;;;;;3.00;0.90;;;23.50;99.90;;;;;;5072345;28;20025;-68
2023/03/04 07:15:24;;;;;;;4.45;0.80;;;21.50;99.90;;;;;;5072975;28;20414;-67
2023/03/04 07:17:50;;;;;;;3.28;0.80;;;19.00;99.90;;;;;;5074620;28;20479;-67
2023/03/04 07:20:18;;;;;;;2.70;1.00;;;18.90;99.90;;;;;;5073996;28;20040;-65
2023/03/04 07:24:45;;;;;;;4.80;1.20;;;19.60;99.90;;;;;;5118109;27;20492;-66
2023/03/04 07:27:11;;;;;;;5.05;0.60;;;19.90;99.90;;;;;;5109811;28;20024;-65
2023/03/04 07:29:37;;;;;;;4.35;0.88;;;20.70;99.90;;;;;;5091723;28;20060;-67
2023/03/04 07:32:07;;;;;;;5.43;0.90;;;20.80;99.90;;;;;;5109888;28;20016;-66
2023/03/04 07:34:33;;;;;;;7.25;1.27;;;19.60;99.90;;;;;;5110094;28;20020;-66
2023/03/04 07:43:13;;;;;;;12.30;1.63;;;21.20;99.90;;;;;;5110462;27;20307;-65
2023/03/04 07:45:41;;;;;;;7.82;1.50;;;22.40;99.90;;;;;;5109303;28;20027;-62
2023/03/04 07:48:07;;;;;;;3.53;1.13;;;22.40;99.90;;;;;;5110745;28;20028;-63
2023/03/04 07:50:33;;;;;;;6.97;2.45;;;22.20;99.90;;;;;;5110985;28;20097;-63
2023/03/04 07:52:59;;;;;;;3.85;1.60;;;21.50;99.90;;;;;;5109177;28;20372;-63
2023/03/04 07:55:26;;;;;;;5.65;1.95;;;20.80;99.90;;;;;;5108978;28;20491;-64
2023/03/04 07:57:52;;;;;;;3.85;1.30;;;19.60;99.90;;;;;;5108947;28;20070;-66
2023/03/04 08:00:19;;;;;;;5.18;1.10;;;19.20;99.90;;;;;;5110584;28;20020;-65
2023/03/04 08:02:45;;;;;;;4.05;1.27;;;18.90;99.90;;;;;;5110355;28;20054;-64
2023/03/04 08:05:11;;;;;;;5.70;2.28;;;18.60;99.90;;;;;;5110307;28;20412;-64
2023/03/04 08:07:37;;;;;;;4.40;1.20;;;18.30;99.90;;;;;;5091577;28;20028;-63
2023/03/04 08:10:04;;;;;;;12.73;1.40;;;18.00;99.90;;;;;;5109888;28;20514;-64
2023/03/04 08:12:29;;;;;;;;;;;18.40;99.90;;;;;;5110126;28;20019;-64
2023/03/04 08:14:56;;;;;;;2.75;0.90;;;18.10;99.90;;;;;;5109764;28;19910;-64
2023/03/04 08:17:24;;;;;;;7.28;2.08;;;17.50;99.90;;;;;;5110036;28;20447;-65
2023/03/04 08:19:52;;;;;;;4.82;1.50;;;17.50;99.90;;;;;;5109489;28;20069;-63
2023/03/04 08:22:18;;;;;;;6.88;1.02;;;17.30;99.90;;;;;;5110305;28;20028;-63
2023/03/04 08:24:44;;;;;;;7.28;2.33;;;17.30;99.90;;;;;;5109024;28;20055;-63
2023/03/04 08:27:16;;;;;;;6.78;1.65;;;17.30;99.90;;;;;;5110640;28;20114;-64
2023/03/04 08:29:43;;;;;;;6.75;1.30;;;17.20;99.90;;;;;;5110382;28;20028;-64
2023/03/04 08:32:10;;;;;;;6.32;2.85;;;17.40;99.90;;;;;;5109289;28;20028;-62
2023/03/04 08:34:39;;;;;;;7.60;1.40;;;17.40;99.90;;;;;;5109109;28;20066;-63
2023/03/04 08:37:06;;;;;;;6.60;1.48;;;17.60;99.90;;;;;;5109754;28;20127;-67
2023/03/04 08:39:34;;;;;;;14.02;1.63;;;17.90;99.90;;;;;;5109045;28;20032;-63
2023/03/04 08:42:00;;;;;;;5.63;1.00;;;17.70;99.90;;;;;;5107250;28;20422;-63
2023/03/04 08:44:26;;;;;;;6.28;1.40;;;17.80;99.90;;;;;;5109106;28;20028;-64
2023/03/04 08:46:52;;;;;;;6.07;1.42;;;17.80;99.90;;;;;;5109318;28;20111;-63
2023/03/04 08:49:18;;;;;;;5.00;1.00;;;18.00;99.90;;;;;;5108736;28;20451;-64
2023/03/04 08:51:44;;;;;;;9.73;1.50;;;17.80;99.90;;;;;;5109059;28;20016;-64
2023/03/04 08:54:12;;;;;;;6.18;1.50;;;18.10;99.90;;;;;;5097201;28;20036;-64
2023/03/04 08:56:40;;;;;;;6.40;1.10;;;17.80;99.90;;;;;;5094363;28;20181;-63
2023/03/04 08:59:06;;;;;;;8.48;1.65;;;17.90;99.90;;;;;;5095268;28;20099;-61
2023/03/04 09:01:32;;;;;;;4.82;1.00;;;17.50;99.90;;;;;;5095006;28;20028;-63
2023/03/04 09:03:58;;;;;;;11.02;1.20;;;17.70;99.90;;;;;;5095171;28;20020;-63
2023/03/04 09:06:24;;;;;;;8.73;1.30;;;17.60;99.90;;;;;;5094945;28;20058;-63
2023/03/04 09:08:51;;;;;;;10.20;1.20;;;17.60;99.90;;;;;;5093888;28;20052;-63
2023/03/04 09:11:17;;;;;;;7.03;1.00;;;17.40;99.90;;;;;;5094960;28;20051;-64
2023/03/04 09:13:46;;;;;;;5.47;1.60;;;17.80;99.90;;;;;;5094647;28;20483;-63
2023/03/04 09:16:14;;;;;;;15.63;1.70;;;17.50;99.90;;;;;;5094553;28;20549;-63
2023/03/04 09:18:41;;;;;;;5.95;1.30;;;17.60;99.90;;;;;;5095035;28;20017;-62
2023/03/04 09:21:08;;;;;;;10.85;1.52;;;17.40;99.90;;;;;;5094777;28;20040;-63
2023/03/04 09:23:35;;;;;;;10.20;1.17;;;17.20;99.90;;;;;;5094439;28;20028;-65
2023/03/04 09:26:12;;;;;;;10.68;1.80;;;17.10;99.90;;;;;;5094485;28;20089;-63
2023/03/04 09:28:38;;;;;;;7.13;1.45;;;17.10;99.90;;;;;;5094864;28;20046;-64
2023/03/04 09:31:11;;;;;;;7.60;2.45;;;17.30;99.90;;;;;;5093291;28;20379;-64
2023/03/04 09:33:37;;;;;;;3.05;1.10;;;17.00;99.90;;;;;;5094905;28;20032;-63
2023/03/04 09:36:03;;;;;;;3.60;1.00;;;16.90;99.90;;;;;;5093068;28;20032;-64
2023/03/04 09:38:29;;;;;;;4.00;0.93;;;16.60;99.90;;;;;;5094351;28;20091;-65
2023/03/04 09:40:58;;;;;;;6.10;1.10;;;16.40;99.90;;;;;;5094572;28;20068;-64
2023/03/04 09:43:28;;;;;;;7.40;1.08;;;16.30;99.90;;;;;;5093026;28;20024;-64
2023/03/04 09:45:59;;;;;;;7.38;1.20;;;16.50;99.90;;;;;;5094197;28;20024;-65
2023/03/04 09:48:30;;;;;;;7.65;1.40;;;16.60;99.90;;;;;;5092424;28;20025;-64
2023/03/04 09:51:21;;;;;;;5.05;1.05;;;16.60;99.90;;;;;;5092456;28;20472;-63
2023/03/04 09:53:56;;;;;;;6.18;0.98;;;16.80;99.90;;;;;;5093750;28;20020;-64
2023/03/04 09:56:23;;;;;;;5.10;1.23;;;16.50;99.90;;;;;;5091827;28;20059;-64
2023/03/04 09:59:13;;;;;;;9.20;1.63;;;16.50;99.90;;;;;;5093505;28;20102;-63
2023/03/04 10:01:53;;;;;;;10.05;1.55;;;16.40;99.90;;;;;;5093204;28;20058;-65
2023/03/04 10:04:39;;;;;;;5.32;1.30;;;16.60;99.90;;;;;;5093158;28;20028;-64
2023/03/04 10:07:27;;;;;;;7.65;1.70;;;16.70;99.90;;;;;;5093816;28;20020;-64
2023/03/04 10:09:59;;;;;;;6.55;1.25;;;16.90;99.90;;;;;;5092783;28;20032;-63
2023/03/04 10:12:30;;;;;;;6.13;0.90;;;16.80;99.90;;;;;;5093121;28;20119;-65
2023/03/04 10:15:06;;;;;;;3.30;0.73;;;16.30;99.90;;;;;;5093783;28;20016;-65
2023/03/04 10:17:32;;;;;;;5.68;0.77;;;15.90;99.90;;;;;;5093906;28;20164;-65
2023/03/04 10:20:06;;;;;;;2.00;0.80;;;16.00;99.90;;;;;;5093372;28;20099;-63
2023/03/04 10:22:44;;;;;;;6.47;1.20;;;16.10;99.90;;;;;;5093348;28;20047;-61
2023/03/04 10:25:23;;;;;;;3.28;0.85;;;16.00;99.90;;;;;;5093055;28;20030;-64
2023/03/04 10:27:58;;;;;;;3.75;1.10;;;15.90;99.90;;;;;;5091718;28;20040;-60
2023/03/04 10:30:45;;;;;;;3.47;1.10;;;16.10;99.90;;;;;;5093435;28;20039;-65
2023/03/04 10:33:13;;;;;;;7.05;0.90;;;16.30;99.90;;;;;;5093405;28;20044;-66
2023/03/04 10:35:42;;;;;;;8.60;1.00;;;16.10;99.90;;;;;;5093642;28;20447;-67
2023/03/04 10:38:11;;;;;;;3.75;0.60;;;16.20;99.90;;;;;;5092955;28;20457;-63
2023/03/04 10:40:40;;;;;;;8.18;0.90;;;16.20;99.90;;;;;;5092628;28;20444;-63
2023/03/04 10:43:13;;;;;;;4.68;0.80;;;16.20;99.90;;;;;;5092609;28;20055;-65
2023/03/04 10:45:39;;;;;;;4.75;1.17;;;16.20;99.90;;;;;;5092993;28;20020;-63
2023/03/04 10:48:06;;;;;;;;;;;16.50;99.90;;;;;;5091881;28;20043;-64
2023/03/04 10:50:32;;;;;;;4.45;0.80;;;16.50;99.90;;;;;;5093453;28;20298;-63
2023/03/04 10:52:59;;;;;;;7.63;0.80;;;16.50;99.90;;;;;;5093008;28;20432;-64
2023/03/04 10:55:42;;;;;;;3.85;0.70;;;16.50;99.90;;;;;;5092435;28;20375;-63
2023/03/04 10:58:18;;;;;;;11.25;1.00;;;16.60;99.90;;;;;;5092769;28;20028;-64
2023/03/04 11:00:57;;;;;;;8.37;0.80;;;16.60;99.90;;;;;;5092380;28;20460;-63
2023/03/04 11:03:26;;;;;;;5.93;1.40;;;16.70;99.90;;;;;;5092692;28;20027;-64
2023/03/04 11:06:18;;;;;;;5.18;1.08;;;17.00;99.90;;;;;;5092252;28;20024;-65
2023/03/04 11:08:51;;;;;;;8.13;1.00;;;16.80;99.90;;;;;;5092272;28;20028;-63
2023/03/04 11:11:22;;;;;;;4.82;1.00;;;16.80;99.90;;;;;;5092393;28;20031;-64
2023/03/04 11:13:56;;;;;;;2.63;1.17;;;16.60;99.90;;;;;;5092969;28;20112;-65
2023/03/04 11:16:33;;;;;;;6.50;1.42;;;16.30;99.90;;;;;;5092240;28;20020;-64
2023/03/04 11:19:24;;;;;;;5.30;0.80;;;16.40;99.90;;;;;;5091398;28;20028;-63
2023/03/04 11:21:51;;;;;;;6.10;1.02;;;16.40;99.90;;;;;;5087589;28;20052;-65
2023/03/04 11:24:30;;;;;;;;;;;16.30;99.90;;;;;;5091797;28;20107;-65
2023/03/04 11:27:01;;;;;;;2.42;0.70;;;16.60;99.90;;;;;;5091880;28;19916;-64
2023/03/04 11:29:38;;;;;;;2.40;0.70;;;16.70;99.90;;;;;;5091658;28;20024;-64
2023/03/04 11:32:13;;;;;;;3.15;0.65;;;16.40;99.90;;;;;;5091717;28;20027;-64
2023/03/04 11:34:52;;;;;;;2.63;0.70;;;16.30;99.90;;;;;;5091624;28;20032;-64
2023/03/04 11:37:28;;;;;;;5.45;0.90;;;16.20;99.90;;;;;;5091750;28;20063;-63
2023/03/04 11:40:04;;;;;;;5.50;0.85;;;16.00;99.90;;;;;;5091287;28;20016;-63
2023/03/04 11:42:40;;;;;;;4.38;0.90;;;15.90;99.90;;;;;;5091566;28;20070;-64
2023/03/04 11:45:30;;;;;;;2.65;0.82;;;16.20;99.90;;;;;;5092223;28;20464;-63
2023/03/04 11:48:04;;;;;;;5.80;0.85;;;16.40;99.90;;;;;;5092321;28;20107;-64
2023/03/04 11:50:51;;;;;;;3.42;1.00;;;16.30;99.90;;;;;;5092319;28;20030;-64
2023/03/04 11:53:35;;;;;;;3.92;0.80;;;16.70;99.90;;;;;;5092451;28;20176;-63
2023/03/04 11:56:10;;;;;;;3.25;0.80;;;17.00;99.90;;;;;;5092565;28;20028;-64
2023/03/04 11:58:57;;;;;;;2.35;0.65;;;17.20;99.90;;;;;;5092321;28;20541;-64
2023/03/04 12:01:44;;;;;;;3.25;0.90;;;17.00;99.90;;;;;;5091907;28;20491;-64
2023/03/04 12:04:38;;;;;;;3.50;0.68;;;16.80;99.90;;;;;;5091069;28;20113;-63
2023/03/04 12:07:16;;;;;;;6.30;0.75;;;16.70;99.90;;;;;;5090944;28;20028;-63
2023/03/04 12:09:55;;;;;;;1.98;0.60;;;16.50;99.90;;;;;;5090532;28;20127;-63
2023/03/04 12:12:29;;;;;;;7.30;0.98;;;16.30;99.90;;;;;;5092528;28;20107;-64
2023/03/04 12:15:17;;;;;;;3.78;0.80;;;16.30;99.90;;;;;;5092578;28;20469;-63
2023/03/04 12:18:06;;;;;;;4.55;2.05;;;16.60;99.90;;;;;;5091126;28;20024;-64
2023/03/04 12:20:47;;;;;;;2.70;0.70;;;16.40;99.90;;;;;;5081747;28;20039;-65
2023/03/04 12:23:33;;;;;;;7.00;0.80;;;16.00;99.90;;;;;;5092897;28;20044;-63
2023/03/04 12:26:03;;;;;;;2.03;0.77;;;15.90;99.90;;;;;;5092435;28;20044;-64
2023/03/04 12:28:52;;;;;;;2.58;0.90;;;15.90;99.90;;;;;;5094449;28;20034;-62
2023/03/04 12:31:42;;;;;;;1.77;0.70;;;16.00;99.90;;;;;;5095238;28;20024;-63
2023/03/04 12:34:27;;;;;;;2.65;0.80;;;16.10;99.90;;;;;;5096940;28;20020;-69
2023/03/04 12:37:13;;;;;;;2.53;0.70;;;16.10;99.90;;;;;;5096802;28;20460;-69
2023/03/04 12:40:04;;;;;;;1.77;0.53;;;15.80;99.90;;;;;;5096474;28;20102;-69
2023/03/04 12:42:55;;;;;;;2.25;0.60;;;15.90;99.90;;;;;;5096217;28;20377;-69
2023/03/04 12:45:52;;;;;;;2.55;0.60;;;15.70;99.90;;;;;;5096227;28;20495;-69
2023/03/04 12:48:32;;;;;;;5.10;0.73;;;15.90;99.90;;;;;;5096496;28;20042;-69
2023/03/04 12:51:06;;;;;;;2.63;0.52;;;15.80;99.90;;;;;;5094509;28;20036;-69
2023/03/04 12:53:56;;;;;;;3.33;0.70;;;15.60;99.90;;;;;;5096264;28;20024;-69
2023/03/04 12:56:36;;;;;;;4.22;0.60;;;15.60;99.90;;;;;;5096317;28;20053;-69
2023/03/04 12:59:02;;;;;;;1.30;0.52;;;15.90;99.90;;;;;;5096478;28;20020;-71
2023/03/04 13:01:59;;;;;;;4.70;0.85;;;16.30;99.90;;;;;;5096112;28;20115;-69
2023/03/04 13:04:58;;;;;;;3.17;0.80;;;16.30;99.90;;;;;;5096422;28;20028;-69
2023/03/04 13:07:39;;;;;;;2.22;0.50;;;16.60;99.90;;;;;;5095843;28;20047;-69
2023/03/04 13:10:18;;;;;;;3.88;0.70;;;16.30;99.90;;;;;;5095669;28;20031;-69
2023/03/04 13:13:00;;;;;;;4.95;0.73;;;15.90;99.90;;;;;;5095934;28;20020;-69
2023/03/04 13:15:36;;;;;;;1.98;0.73;;;15.70;99.90;;;;;;5096427;28;20344;-70
2023/03/04 13:18:21;;;;;;;3.08;0.60;;;15.70;99.90;;;;;;5096144;28;20052;-70